createdAt,value
2023-04-18T00:04:20.164Z,0
2023-04-18T00:19:19.650Z,0
2023-04-18T00:34:19.602Z,0
2023-04-18T00:49:19.625Z,0
2023-04-18T01:04:19.857Z,0
2023-04-18T01:19:19.589Z,0
2023-04-18T01:34:19.548Z,0
2023-04-18T01:49:19.565Z,0
2023-04-18T02:04:19.551Z,0
2023-04-18T02:19:19.517Z,0
2023-04-18T02:34:19.436Z,0
2023-04-18T02:49:19.488Z,0
2023-04-18T03:04:19.474Z,0
2023-04-18T03:19:19.470Z,0
2023-04-18T03:34:19.381Z,0
2023-04-18T03:49:19.406Z,0
2023-04-18T04:04:19.486Z,0
2023-04-18T04:19:19.378Z,0
2023-04-18T04:34:19.309Z,0
2023-04-18T04:49:19.336Z,0
2023-04-18T05:04:19.792Z,0
2023-04-18T05:19:19.303Z,0
2023-04-18T05:34:19.345Z,0
2023-04-18T05:49:19.277Z,0
2023-04-18T06:04:19.726Z,2
2023-04-18T06:19:19.259Z,0
2023-04-18T06:34:19.181Z,0
2023-04-18T06:49:20.733Z,0
2023-04-18T07:04:19.612Z,0
2023-04-18T07:19:19.156Z,0
2023-04-18T07:34:19.127Z,0
2023-04-18T07:49:19.130Z,0
2023-04-18T08:04:19.215Z,0
2023-04-18T08:19:19.110Z,0
2023-04-18T08:34:19.073Z,0
2023-04-18T08:49:19.059Z,0
2023-04-18T09:04:19.052Z,0
2023-04-18T09:19:19.129Z,0
2023-04-18T09:34:18.945Z,0
2023-04-18T09:49:18.938Z,5
2023-04-18T10:04:19.001Z,0
2023-04-18T10:19:18.910Z,0
2023-04-18T10:34:18.916Z,0
2023-04-18T10:49:18.852Z,0
2023-04-18T11:04:19.217Z,0
2023-04-18T11:19:18.803Z,0
2023-04-18T11:34:18.767Z,0
2023-04-18T11:49:18.769Z,0
2023-04-18T12:04:19.352Z,1
2023-04-18T12:19:18.698Z,93
2023-04-18T12:34:18.639Z,114
2023-04-18T12:49:18.608Z,186
2023-04-18T13:04:18.843Z,243
2023-04-18T13:19:18.606Z,180
2023-04-18T13:34:18.507Z,155
2023-04-18T13:49:18.518Z,251
2023-04-18T14:04:18.677Z,203
2023-04-18T14:19:18.459Z,51
2023-04-18T14:34:18.399Z,87
2023-04-18T14:49:18.410Z,68
2023-04-18T15:04:18.658Z,140
2023-04-18T15:19:18.369Z,142
2023-04-18T15:34:18.352Z,203
2023-04-18T15:49:18.319Z,63
2023-04-18T16:04:18.379Z,119
2023-04-18T16:19:18.291Z,172
2023-04-18T16:34:18.241Z,242
2023-04-18T16:49:18.248Z,207
2023-04-18T17:04:18.383Z,254
2023-04-18T17:19:18.178Z,76
2023-04-18T17:34:18.146Z,13
2023-04-18T17:49:18.173Z,11
2023-04-18T18:04:18.265Z,8
2023-04-18T18:19:18.104Z,4
2023-04-18T18:34:18.025Z,0
2023-04-18T18:49:23.077Z,2
2023-04-18T19:04:18.126Z,0
2023-04-18T19:19:17.997Z,0
2023-04-18T19:34:17.969Z,0
2023-04-18T19:49:17.927Z,0
2023-04-18T20:04:18.002Z,0
2023-04-18T20:19:18.256Z,0
2023-04-18T20:34:17.891Z,0
2023-04-18T20:49:17.930Z,0
2023-04-18T21:04:18.115Z,0
2023-04-18T21:19:17.882Z,0
2023-04-18T21:34:18.051Z,0
2023-04-18T21:49:17.832Z,0
2023-04-18T22:04:18.039Z,0
2023-04-18T22:19:17.796Z,0
2023-04-18T22:34:17.857Z,0
2023-04-18T22:49:17.738Z,0
2023-04-18T23:04:17.971Z,0
2023-04-18T23:19:17.697Z,0
2023-04-18T23:34:17.634Z,0
2023-04-18T23:49:17.663Z,0
